createdAt,value
2019-03-28T00:00:46.310Z,993.82
2019-03-28T00:01:46.229Z,993.80
2019-03-28T00:02:46.141Z,993.81
2019-03-28T00:03:46.060Z,993.83
2019-03-28T00:04:45.975Z,993.77
2019-03-28T00:05:45.889Z,993.80
2019-03-28T00:06:45.887Z,993.77
2019-03-28T00:07:45.724Z,993.79
2019-03-28T00:08:45.639Z,993.76
2019-03-28T00:09:45.557Z,993.73
2019-03-28T00:10:45.471Z,993.75
2019-03-28T00:11:45.391Z,993.73
2019-03-28T00:12:45.307Z,993.72
2019-03-28T00:13:45.219Z,993.72
2019-03-28T00:14:45.137Z,993.69
2019-03-28T00:15:45.054Z,993.69
2019-03-28T00:16:44.968Z,993.70
2019-03-28T00:17:44.886Z,993.73
2019-03-28T00:18:44.802Z,993.70
2019-03-28T00:19:44.723Z,993.72
2019-03-28T00:20:44.637Z,993.71
2019-03-28T00:21:44.553Z,993.71
2019-03-28T00:22:44.466Z,993.72
2019-03-28T00:23:44.385Z,993.72
2019-03-28T00:24:44.300Z,993.72
2019-03-28T00:25:44.215Z,993.70
2019-03-28T00:26:44.140Z,993.70
2019-03-28T00:27:44.048Z,993.72
2019-03-28T00:28:43.966Z,993.75
2019-03-28T00:29:43.883Z,993.77
2019-03-28T00:30:44.343Z,993.73
2019-03-28T00:31:43.715Z,993.77
2019-03-28T00:32:43.632Z,993.75
2019-03-28T00:33:44.357Z,993.74
2019-03-28T00:34:43.459Z,993.71
2019-03-28T00:35:43.377Z,993.70
2019-03-28T00:36:43.296Z,993.73
2019-03-28T00:37:43.214Z,993.75
2019-03-28T00:38:43.124Z,993.75
2019-03-28T00:39:43.041Z,993.74
2019-03-28T00:40:42.957Z,993.72
2019-03-28T00:41:42.875Z,993.72
2019-03-28T00:42:42.792Z,993.74
2019-03-28T00:43:42.704Z,993.76
2019-03-28T00:44:42.622Z,993.73
2019-03-28T00:45:44.568Z,993.72
2019-03-28T00:46:42.456Z,993.69
2019-03-28T00:47:42.379Z,993.71
2019-03-28T00:48:42.287Z,993.73
2019-03-28T00:49:42.203Z,993.72
2019-03-28T00:50:42.121Z,993.67
2019-03-28T00:51:43.260Z,993.70
2019-03-28T00:52:41.949Z,993.71
2019-03-28T00:53:41.880Z,993.70
2019-03-28T00:54:41.784Z,993.72
2019-03-28T00:55:41.703Z,993.69
2019-03-28T00:56:46.809Z,993.69
2019-03-28T00:57:41.539Z,993.71
2019-03-28T00:58:41.452Z,993.69
2019-03-28T00:59:41.367Z,993.74
2019-03-28T01:00:41.284Z,993.66
2019-03-28T01:01:41.207Z,993.67
2019-03-28T01:02:41.119Z,993.67
2019-03-28T01:03:41.035Z,993.68
2019-03-28T01:04:40.947Z,993.65
2019-03-28T01:05:40.863Z,993.69
2019-03-28T01:06:40.781Z,993.68
2019-03-28T01:07:40.701Z,993.67
2019-03-28T01:08:40.613Z,993.69
2019-03-28T01:09:40.533Z,993.67
2019-03-28T01:10:40.446Z,993.70
2019-03-28T01:11:40.361Z,993.72
2019-03-28T01:12:40.286Z,993.68
2019-03-28T01:13:40.196Z,993.73
2019-03-28T01:14:40.116Z,993.71
2019-03-28T01:15:40.024Z,993.68
2019-03-28T01:16:39.945Z,993.67
2019-03-28T01:17:39.860Z,993.68
2019-03-28T01:18:39.778Z,993.70
2019-03-28T01:19:39.690Z,993.71
2019-03-28T01:20:39.606Z,993.68
2019-03-28T01:21:39.518Z,993.67
2019-03-28T01:22:39.439Z,993.67
2019-03-28T01:23:39.356Z,993.66
2019-03-28T01:24:39.275Z,993.68
2019-03-28T01:25:39.190Z,993.69
2019-03-28T01:26:39.105Z,993.67
2019-03-28T01:27:39.023Z,993.70
2019-03-28T01:28:38.939Z,993.70
2019-03-28T01:29:38.853Z,993.69
2019-03-28T01:30:38.771Z,993.71
2019-03-28T01:31:38.685Z,993.69
2019-03-28T01:32:38.602Z,993.73
2019-03-28T01:33:38.519Z,993.76
2019-03-28T01:34:38.432Z,993.81
2019-03-28T01:35:38.349Z,993.79
2019-03-28T01:36:38.423Z,993.81
2019-03-28T01:37:38.181Z,993.80
2019-03-28T01:38:38.097Z,993.80
2019-03-28T01:39:38.036Z,993.78
2019-03-28T01:40:37.930Z,993.81
2019-03-28T01:41:37.843Z,993.77
2019-03-28T01:42:37.761Z,993.75
2019-03-28T01:43:37.676Z,993.76
2019-03-28T01:44:37.593Z,993.72
2019-03-28T01:45:37.514Z,993.73
2019-03-28T01:46:37.426Z,993.76
2019-03-28T01:47:37.342Z,993.71
2019-03-28T01:48:37.257Z,993.73
2019-03-28T01:49:37.175Z,993.74
2019-03-28T01:50:37.087Z,993.73
2019-03-28T01:51:37.008Z,993.70
2019-03-28T01:52:36.936Z,993.68
2019-03-28T01:53:36.836Z,993.67
2019-03-28T01:54:36.751Z,993.64
2019-03-28T01:55:36.666Z,993.65
2019-03-28T01:56:36.584Z,993.68
2019-03-28T01:57:36.503Z,993.66
2019-03-28T01:58:36.415Z,993.66
2019-03-28T01:59:36.334Z,993.67
2019-03-28T02:00:36.248Z,993.63
2019-03-28T02:01:36.166Z,993.64
2019-03-28T02:02:36.081Z,993.68
2019-03-28T02:03:35.994Z,993.69
2019-03-28T02:04:35.910Z,993.68
2019-03-28T02:05:35.825Z,993.65
2019-03-28T02:06:35.740Z,993.65
2019-03-28T02:07:35.655Z,993.63
2019-03-28T02:08:35.575Z,993.63
2019-03-28T02:09:35.491Z,993.63
2019-03-28T02:10:35.402Z,993.65
2019-03-28T02:11:35.321Z,993.65
2019-03-28T02:12:35.238Z,993.64
2019-03-28T02:13:35.155Z,993.66
2019-03-28T02:14:35.068Z,993.64
2019-03-28T02:15:34.984Z,993.62
2019-03-28T02:16:34.900Z,993.63
2019-03-28T02:17:34.813Z,993.59
2019-03-28T02:18:34.730Z,993.62
2019-03-28T02:19:34.647Z,993.60
2019-03-28T02:20:34.561Z,993.60
2019-03-28T02:21:34.483Z,993.60
2019-03-28T02:22:34.398Z,993.62
2019-03-28T02:23:34.308Z,993.62
2019-03-28T02:24:34.224Z,993.63
2019-03-28T02:25:34.142Z,993.65
2019-03-28T02:26:34.293Z,993.65
2019-03-28T02:27:33.979Z,993.63
2019-03-28T02:28:33.891Z,993.66
2019-03-28T02:29:33.805Z,993.64
2019-03-28T02:30:33.719Z,993.66
2019-03-28T02:31:33.640Z,993.65
2019-03-28T02:32:34.016Z,993.65
2019-03-28T02:33:33.466Z,993.64
2019-03-28T02:34:33.385Z,993.62
2019-03-28T02:35:33.322Z,993.64
2019-03-28T02:36:33.217Z,993.62
2019-03-28T02:37:33.136Z,993.67
2019-03-28T02:38:33.048Z,993.65
2019-03-28T02:39:32.962Z,993.64
2019-03-28T02:40:32.903Z,993.65
2019-03-28T02:41:32.795Z,993.65
2019-03-28T02:42:32.712Z,993.64
2019-03-28T02:43:32.624Z,993.66
2019-03-28T02:44:32.542Z,993.66
2019-03-28T02:45:32.456Z,993.66
2019-03-28T02:46:32.374Z,993.68
2019-03-28T02:47:32.295Z,993.69
2019-03-28T02:48:32.205Z,993.70
2019-03-28T02:49:32.127Z,993.67
2019-03-28T02:50:32.032Z,993.68
2019-03-28T02:51:31.954Z,993.69
2019-03-28T02:52:31.870Z,993.64
2019-03-28T02:53:31.786Z,993.65
2019-03-28T02:54:31.930Z,993.67
2019-03-28T02:55:31.615Z,993.64
2019-03-28T02:56:31.529Z,993.63
2019-03-28T02:57:40.921Z,993.68
2019-03-28T02:58:31.365Z,993.67
2019-03-28T02:59:31.276Z,993.64
2019-03-28T03:00:31.191Z,993.66
2019-03-28T03:01:31.119Z,993.68
2019-03-28T03:02:31.056Z,993.64
2019-03-28T03:03:30.940Z,993.68
2019-03-28T03:04:30.856Z,993.70
2019-03-28T03:05:30.770Z,993.69
2019-03-28T03:06:30.687Z,993.66
2019-03-28T03:07:30.602Z,993.69
2019-03-28T03:08:30.518Z,993.69
2019-03-28T03:09:30.436Z,993.70
2019-03-28T03:10:30.343Z,993.67
2019-03-28T03:11:30.262Z,993.70
2019-03-28T03:12:30.177Z,993.67
2019-03-28T03:13:30.094Z,993.66
2019-03-28T03:14:30.011Z,993.63
2019-03-28T03:15:30.302Z,993.66
2019-03-28T03:16:29.845Z,993.66
2019-03-28T03:17:29.758Z,993.69
2019-03-28T03:18:29.679Z,993.66
2019-03-28T03:19:29.588Z,993.68
2019-03-28T03:20:29.514Z,993.65
2019-03-28T03:21:29.421Z,993.69
2019-03-28T03:22:29.339Z,993.67
2019-03-28T03:23:29.253Z,993.67
2019-03-28T03:24:29.168Z,993.68
2019-03-28T03:25:29.097Z,993.68
2019-03-28T03:26:29.002Z,993.66
2019-03-28T03:27:28.914Z,993.62
2019-03-28T03:28:28.830Z,993.61
2019-03-28T03:29:28.747Z,993.60
2019-03-28T03:30:29.851Z,993.61
2019-03-28T03:31:28.577Z,993.62
2019-03-28T03:32:28.494Z,993.61
2019-03-28T03:33:28.410Z,993.61
2019-03-28T03:34:28.324Z,993.61
2019-03-28T03:35:28.596Z,993.63
2019-03-28T03:36:28.170Z,993.66
2019-03-28T03:37:28.068Z,993.64
2019-03-28T03:38:27.989Z,993.63
2019-03-28T03:39:27.904Z,993.60
2019-03-28T03:40:27.821Z,993.63
2019-03-28T03:41:27.737Z,993.62
2019-03-28T03:42:27.651Z,993.62
2019-03-28T03:43:27.572Z,993.60
2019-03-28T03:44:27.484Z,993.60
2019-03-28T03:45:27.403Z,993.61
2019-03-28T03:46:27.592Z,993.67
2019-03-28T03:47:27.249Z,993.68
2019-03-28T03:48:27.146Z,993.68
2019-03-28T03:49:27.064Z,993.67
2019-03-28T03:50:26.995Z,993.67
2019-03-28T03:51:26.894Z,993.68
2019-03-28T03:52:26.810Z,993.68
2019-03-28T03:53:26.724Z,993.65
2019-03-28T03:54:26.641Z,993.68
2019-03-28T03:55:26.561Z,993.70
2019-03-28T03:56:26.473Z,993.68
2019-03-28T03:57:26.389Z,993.71
2019-03-28T03:58:26.306Z,993.74
2019-03-28T03:59:26.221Z,993.75
2019-03-28T04:00:26.140Z,993.73
2019-03-28T04:01:26.051Z,993.75
2019-03-28T04:02:25.968Z,993.72
2019-03-28T04:03:25.881Z,993.76
2019-03-28T04:04:25.796Z,993.77
2019-03-28T04:05:25.715Z,993.78
2019-03-28T04:06:25.632Z,993.78
2019-03-28T04:07:25.548Z,993.78
2019-03-28T04:08:26.908Z,993.77
2019-03-28T04:09:25.378Z,993.76
2019-03-28T04:10:25.301Z,993.78
2019-03-28T04:11:25.212Z,993.78
2019-03-28T04:12:25.126Z,993.78
2019-03-28T04:13:25.040Z,993.78
2019-03-28T04:14:24.958Z,993.83
2019-03-28T04:15:24.873Z,993.84
2019-03-28T04:16:24.796Z,993.84
2019-03-28T04:17:24.704Z,993.83
2019-03-28T04:18:24.629Z,993.83
2019-03-28T04:19:24.537Z,993.85
2019-03-28T04:20:25.063Z,993.84
2019-03-28T04:21:24.368Z,993.81
2019-03-28T04:22:24.283Z,993.84
2019-03-28T04:23:24.201Z,993.83
2019-03-28T04:24:24.117Z,993.81
2019-03-28T04:25:24.030Z,993.83
2019-03-28T04:26:23.949Z,993.84
2019-03-28T04:27:23.870Z,993.82
2019-03-28T04:28:31.738Z,993.82
2019-03-28T04:29:23.694Z,993.86
2019-03-28T04:30:23.614Z,993.81
2019-03-28T04:31:23.528Z,993.83
2019-03-28T04:32:23.454Z,993.79
2019-03-28T04:33:23.368Z,993.80
2019-03-28T04:34:23.269Z,993.81
2019-03-28T04:35:23.196Z,993.79
2019-03-28T04:36:23.104Z,993.83
2019-03-28T04:37:23.020Z,993.85
2019-03-28T04:38:22.952Z,993.85
2019-03-28T04:39:22.851Z,993.89
2019-03-28T04:40:22.771Z,993.88
2019-03-28T04:41:22.687Z,993.91
2019-03-28T04:42:22.597Z,993.91
2019-03-28T04:43:22.510Z,993.93
2019-03-28T04:44:22.434Z,993.91
2019-03-28T04:45:22.348Z,993.92
2019-03-28T04:46:22.269Z,993.94
2019-03-28T04:47:22.179Z,993.91
2019-03-28T04:48:22.098Z,993.94
2019-03-28T04:49:22.012Z,993.92
2019-03-28T04:50:21.927Z,993.89
2019-03-28T04:51:21.871Z,993.93
2019-03-28T04:52:21.756Z,993.94
2019-03-28T04:53:21.673Z,993.93
2019-03-28T04:54:21.658Z,993.97
2019-03-28T04:55:21.578Z,993.95
2019-03-28T04:56:21.420Z,993.98
2019-03-28T04:57:21.337Z,993.95
2019-03-28T04:58:21.931Z,993.91
2019-03-28T04:59:21.168Z,993.92
2019-03-28T05:00:21.089Z,993.93
2019-03-28T05:01:20.998Z,993.94
2019-03-28T05:02:20.916Z,993.93
2019-03-28T05:03:20.830Z,993.93
2019-03-28T05:04:21.227Z,993.96
2019-03-28T05:05:20.664Z,993.95
2019-03-28T05:06:20.583Z,993.96
2019-03-28T05:07:20.495Z,993.96
2019-03-28T05:08:20.414Z,993.99
2019-03-28T05:09:20.326Z,993.98
2019-03-28T05:10:20.244Z,993.99
2019-03-28T05:11:20.160Z,994.03
2019-03-28T05:12:20.072Z,994.04
2019-03-28T05:13:20.325Z,994.05
2019-03-28T05:14:19.902Z,994.00
2019-03-28T05:15:20.503Z,993.99
2019-03-28T05:16:19.735Z,994.00
2019-03-28T05:17:19.650Z,994.00
2019-03-28T05:18:19.566Z,994.00
2019-03-28T05:19:19.482Z,993.97
2019-03-28T05:20:19.400Z,993.97
2019-03-28T05:21:19.315Z,993.99
2019-03-28T05:22:19.229Z,993.99
2019-03-28T05:23:19.145Z,994.01
2019-03-28T05:24:19.069Z,994.00
2019-03-28T05:25:18.978Z,994.02
2019-03-28T05:26:18.893Z,994.02
2019-03-28T05:27:18.808Z,994.01
2019-03-28T05:28:18.726Z,993.99
2019-03-28T05:29:18.653Z,994.00
2019-03-28T05:30:18.547Z,993.99
2019-03-28T05:31:18.472Z,994.00
2019-03-28T05:32:18.387Z,993.99
2019-03-28T05:33:18.303Z,994.00
2019-03-28T05:34:18.218Z,993.98
2019-03-28T05:35:18.136Z,993.97
2019-03-28T05:36:18.543Z,993.99
2019-03-28T05:37:17.970Z,993.95
2019-03-28T05:38:17.883Z,993.96
2019-03-28T05:39:17.797Z,993.98
2019-03-28T05:40:17.714Z,993.92
2019-03-28T05:41:17.687Z,993.95
2019-03-28T05:42:17.548Z,993.93
2019-03-28T05:43:17.466Z,993.95
2019-03-28T05:44:17.381Z,993.94
2019-03-28T05:45:17.297Z,993.94
2019-03-28T05:46:17.213Z,993.95
2019-03-28T05:47:17.133Z,993.96
2019-03-28T05:48:17.042Z,993.96
2019-03-28T05:49:16.959Z,993.97
2019-03-28T05:50:16.867Z,993.95
2019-03-28T05:51:16.790Z,993.96
2019-03-28T05:52:16.706Z,993.99
2019-03-28T05:53:16.625Z,993.98
2019-03-28T05:54:16.539Z,994.01
2019-03-28T05:55:16.456Z,993.98
2019-03-28T05:56:16.377Z,994.03
2019-03-28T05:57:16.288Z,994.03
2019-03-28T05:58:16.202Z,994.05
2019-03-28T05:59:16.118Z,994.09
2019-03-28T06:00:16.047Z,994.07
2019-03-28T06:01:15.954Z,994.14
2019-03-28T06:02:15.866Z,994.13
2019-03-28T06:03:16.304Z,994.12
2019-03-28T06:04:15.700Z,994.12
2019-03-28T06:05:15.617Z,994.15
2019-03-28T06:06:15.531Z,994.16
2019-03-28T06:07:15.444Z,994.19
2019-03-28T06:08:15.366Z,994.17
2019-03-28T06:09:15.277Z,994.19
2019-03-28T06:10:16.504Z,994.15
2019-03-28T06:11:15.110Z,994.18
2019-03-28T06:12:15.022Z,994.14
2019-03-28T06:13:14.944Z,994.17
2019-03-28T06:14:14.858Z,994.13
2019-03-28T06:15:14.771Z,994.14
2019-03-28T06:16:14.688Z,994.15
2019-03-28T06:17:14.608Z,994.16
2019-03-28T06:18:14.521Z,994.19
2019-03-28T06:19:14.439Z,994.20
2019-03-28T06:20:14.352Z,994.18
2019-03-28T06:21:14.274Z,994.18
2019-03-28T06:22:14.186Z,994.18
2019-03-28T06:23:14.102Z,994.21
2019-03-28T06:24:21.728Z,994.24
2019-03-28T06:26:18.328Z,994.23
2019-03-28T06:27:18.227Z,994.26
2019-03-28T06:28:18.146Z,994.27
2019-03-28T06:29:23.791Z,994.27
2019-03-28T06:30:18.413Z,994.28
2019-03-28T06:31:17.891Z,994.27
2019-03-28T06:32:17.804Z,994.29
2019-03-28T06:33:17.724Z,994.28
2019-03-28T06:34:17.640Z,994.27
2019-03-28T06:35:18.298Z,994.28
2019-03-28T06:36:17.471Z,994.32
2019-03-28T06:37:17.388Z,994.36
2019-03-28T06:38:17.305Z,994.32
2019-03-28T06:39:17.221Z,994.33
2019-03-28T06:40:17.136Z,994.36
2019-03-28T06:41:17.051Z,994.35
2019-03-28T06:42:16.968Z,994.37
2019-03-28T06:43:16.884Z,994.36
2019-03-28T06:44:16.801Z,994.37
2019-03-28T06:45:16.712Z,994.35
2019-03-28T06:46:16.630Z,994.36
2019-03-28T06:47:16.546Z,994.37
2019-03-28T06:48:16.466Z,994.36
2019-03-28T06:49:16.383Z,994.34
2019-03-28T06:50:16.303Z,994.36
2019-03-28T06:51:16.213Z,994.36
2019-03-28T06:52:16.130Z,994.31
2019-03-28T06:53:16.049Z,994.33
2019-03-28T06:54:15.962Z,994.32
2019-03-28T06:55:15.879Z,994.32
2019-03-28T06:56:15.796Z,994.34
2019-03-28T06:57:17.690Z,994.36
2019-03-28T06:58:15.630Z,994.39
2019-03-28T06:59:15.549Z,994.39
2019-03-28T07:00:15.460Z,994.37
2019-03-28T07:01:15.381Z,994.36
2019-03-28T07:02:15.296Z,994.31
2019-03-28T07:03:15.206Z,994.34
2019-03-28T07:04:15.130Z,994.31
2019-03-28T07:05:15.045Z,994.34
2019-03-28T07:06:14.966Z,994.38
2019-03-28T07:07:15.215Z,994.36
2019-03-28T07:08:14.792Z,994.37
2019-03-28T07:09:14.718Z,994.36
2019-03-28T07:10:14.628Z,994.34
2019-03-28T07:11:14.542Z,994.34
2019-03-28T07:12:14.462Z,994.36
2019-03-28T07:13:14.380Z,994.32
2019-03-28T07:14:14.295Z,994.33
2019-03-28T07:15:14.213Z,994.35
2019-03-28T07:16:14.127Z,994.37
2019-03-28T07:17:14.048Z,994.39
2019-03-28T07:18:13.963Z,994.41
2019-03-28T07:19:13.882Z,994.38
2019-03-28T07:20:13.798Z,994.37
2019-03-28T07:21:13.720Z,994.38
2019-03-28T07:22:13.634Z,994.36
2019-03-28T07:23:13.551Z,994.34
2019-03-28T07:24:13.471Z,994.36
2019-03-28T07:25:13.384Z,994.37
2019-03-28T07:26:13.308Z,994.41
2019-03-28T07:27:13.216Z,994.41
2019-03-28T07:28:13.135Z,994.42
2019-03-28T07:29:13.051Z,994.37
2019-03-28T07:30:12.970Z,994.37
2019-03-28T07:31:12.924Z,994.36
2019-03-28T07:32:12.814Z,994.41
2019-03-28T07:33:12.728Z,994.38
2019-03-28T07:34:13.717Z,994.35
2019-03-28T07:35:12.560Z,994.35
2019-03-28T07:36:12.480Z,994.31
2019-03-28T07:37:12.611Z,994.31
2019-03-28T07:38:12.312Z,994.33
2019-03-28T07:39:12.228Z,994.31
2019-03-28T07:40:12.149Z,994.32
2019-03-28T07:41:12.065Z,994.35
2019-03-28T07:42:11.991Z,994.30
2019-03-28T07:43:11.899Z,994.28
2019-03-28T07:44:11.818Z,994.29
2019-03-28T07:45:11.732Z,994.26
2019-03-28T07:46:11.651Z,994.30
2019-03-28T07:47:11.576Z,994.28
2019-03-28T07:48:11.487Z,994.28
2019-03-28T07:49:11.404Z,994.30
2019-03-28T07:50:11.692Z,994.32
2019-03-28T07:51:11.239Z,994.28
2019-03-28T07:52:11.159Z,994.26
2019-03-28T07:53:11.101Z,994.24
2019-03-28T07:54:10.995Z,994.23
2019-03-28T07:55:10.917Z,994.22
2019-03-28T07:56:10.829Z,994.19
2019-03-28T07:57:10.747Z,994.19
2019-03-28T07:58:10.661Z,994.19
2019-03-28T07:59:10.582Z,994.20
2019-03-28T08:00:10.501Z,994.20
2019-03-28T08:01:10.438Z,994.20
2019-03-28T08:02:10.331Z,994.24
2019-03-28T08:03:10.253Z,994.22
2019-03-28T08:04:12.249Z,994.24
2019-03-28T08:05:10.104Z,994.24
2019-03-28T08:06:12.638Z,994.22
2019-03-28T08:07:09.925Z,994.23
2019-03-28T08:08:09.841Z,994.25
2019-03-28T08:09:09.758Z,994.25
2019-03-28T08:10:09.677Z,994.28
2019-03-28T08:11:09.617Z,994.25
2019-03-28T08:12:21.867Z,994.26
2019-03-28T08:13:09.432Z,994.29
2019-03-28T08:14:09.348Z,994.28
2019-03-28T08:15:09.273Z,994.24
2019-03-28T08:16:09.183Z,994.29
2019-03-28T08:17:09.107Z,994.27
2019-03-28T08:18:09.027Z,994.29
2019-03-28T08:19:09.001Z,994.28
2019-03-28T08:20:08.856Z,994.34
2019-03-28T08:21:08.775Z,994.35
2019-03-28T08:22:08.691Z,994.33
2019-03-28T08:23:08.611Z,994.34
2019-03-28T08:24:08.524Z,994.33
2019-03-28T08:25:11.646Z,994.37
2019-03-28T08:26:08.380Z,994.35
2019-03-28T08:27:08.285Z,994.37
2019-03-28T08:28:08.203Z,994.38
2019-03-28T08:29:08.120Z,994.40
2019-03-28T08:30:18.253Z,994.36
2019-03-28T08:31:07.956Z,994.37
2019-03-28T08:32:08.896Z,994.36
2019-03-28T08:33:07.789Z,994.33
2019-03-28T08:34:07.708Z,994.34
2019-03-28T08:35:07.634Z,994.31
2019-03-28T08:36:07.549Z,994.33
2019-03-28T08:37:07.470Z,994.31
2019-03-28T08:38:10.042Z,994.32
2019-03-28T08:39:07.301Z,994.36
2019-03-28T08:40:07.223Z,994.33
2019-03-28T08:41:07.392Z,994.35
2019-03-28T08:42:07.062Z,994.34
2019-03-28T08:43:06.980Z,994.35
2019-03-28T08:44:07.428Z,994.33
2019-03-28T08:45:07.190Z,994.33
2019-03-28T08:46:08.799Z,994.31
2019-03-28T08:47:06.654Z,994.32
2019-03-28T08:48:06.608Z,994.34
2019-03-28T08:49:06.502Z,994.33
2019-03-28T08:50:06.413Z,994.27
2019-03-28T08:51:06.349Z,994.32
2019-03-28T08:52:06.246Z,994.30
2019-03-28T08:53:06.169Z,994.34
2019-03-28T08:54:06.093Z,994.31
2019-03-28T08:55:06.005Z,994.29
2019-03-28T08:56:05.918Z,994.31
2019-03-28T08:57:05.844Z,994.32
2019-03-28T08:58:05.759Z,994.33
2019-03-28T08:59:05.683Z,994.35
2019-03-28T09:00:05.658Z,994.34
2019-03-28T09:01:05.915Z,994.31
2019-03-28T09:02:05.586Z,994.33
2019-03-28T09:03:05.360Z,994.32
2019-03-28T09:04:05.272Z,994.38
2019-03-28T09:05:05.193Z,994.35
2019-03-28T09:06:05.113Z,994.34
2019-03-28T09:07:05.029Z,994.28
2019-03-28T09:08:04.946Z,994.27
2019-03-28T09:09:04.871Z,994.29
2019-03-28T09:10:04.802Z,994.25
2019-03-28T09:11:04.705Z,994.24
2019-03-28T09:12:04.630Z,994.26
2019-03-28T09:13:25.528Z,994.23
2019-03-28T09:14:04.465Z,994.23
2019-03-28T09:15:04.384Z,994.22
2019-03-28T09:16:04.313Z,994.22
2019-03-28T09:17:04.218Z,994.22
2019-03-28T09:18:04.156Z,994.23
2019-03-28T09:19:04.070Z,994.20
2019-03-28T09:20:03.993Z,994.23
2019-03-28T09:21:03.898Z,994.24
2019-03-28T09:22:03.829Z,994.24
2019-03-28T09:23:03.742Z,994.31
2019-03-28T09:24:03.659Z,994.28
2019-03-28T09:25:03.596Z,994.27
2019-03-28T09:26:04.556Z,994.26
2019-03-28T09:27:03.417Z,994.29
2019-03-28T09:28:03.338Z,994.25
2019-03-28T09:29:03.255Z,994.28
2019-03-28T09:30:03.179Z,994.26
2019-03-28T09:31:03.099Z,994.27
2019-03-28T09:32:03.018Z,994.29
2019-03-28T09:33:02.947Z,994.28
2019-03-28T09:34:02.862Z,994.28
2019-03-28T09:35:02.777Z,994.29
2019-03-28T09:36:02.695Z,994.32
2019-03-28T09:37:02.618Z,994.28
2019-03-28T09:38:02.538Z,994.23
2019-03-28T09:39:02.457Z,994.21
2019-03-28T09:40:02.378Z,994.19
2019-03-28T09:41:02.300Z,994.18
2019-03-28T09:42:02.220Z,994.20
2019-03-28T09:43:02.141Z,994.22
2019-03-28T09:44:02.063Z,994.19
2019-03-28T09:45:01.982Z,994.21
2019-03-28T09:46:02.116Z,994.23
2019-03-28T09:47:01.821Z,994.22
2019-03-28T09:48:01.746Z,994.27
2019-03-28T09:49:01.672Z,994.21
2019-03-28T09:50:01.588Z,994.23
2019-03-28T09:51:01.502Z,994.22
2019-03-28T09:52:01.426Z,994.18
2019-03-28T09:53:01.347Z,994.16
2019-03-28T09:54:01.267Z,994.21
2019-03-28T09:55:01.188Z,994.21
2019-03-28T09:56:01.106Z,994.23
2019-03-28T09:57:01.029Z,994.19
2019-03-28T09:58:00.955Z,994.17
2019-03-28T09:59:00.877Z,994.20
2019-03-28T10:00:00.794Z,994.22
2019-03-28T10:01:03.263Z,994.20
2019-03-28T10:02:01.354Z,994.19
2019-03-28T10:03:00.558Z,994.20
2019-03-28T10:04:00.478Z,994.16
2019-03-28T10:05:00.572Z,994.14
2019-03-28T10:06:00.321Z,994.17
2019-03-28T10:07:00.246Z,994.14
2019-03-28T10:08:00.163Z,994.11
2019-03-28T10:09:00.089Z,994.17
2019-03-28T10:10:00.585Z,994.15
2019-03-28T10:10:59.925Z,994.12
2019-03-28T10:11:59.847Z,994.13
2019-03-28T10:12:59.773Z,994.17
2019-03-28T10:13:59.692Z,994.17
2019-03-28T10:14:59.618Z,994.19
2019-03-28T10:15:59.538Z,994.14
2019-03-28T10:16:59.458Z,994.15
2019-03-28T10:17:59.383Z,994.15
2019-03-28T10:18:59.301Z,994.14
2019-03-28T10:19:59.223Z,994.14
2019-03-28T10:20:59.146Z,994.16
2019-03-28T10:21:59.065Z,994.14
2019-03-28T10:22:58.990Z,994.16
2019-03-28T10:23:58.913Z,994.16
2019-03-28T10:24:58.839Z,994.18
2019-03-28T10:25:58.752Z,994.20
2019-03-28T10:26:58.677Z,994.14
2019-03-28T10:27:58.606Z,994.14
2019-03-28T10:28:58.521Z,994.16
2019-03-28T10:29:58.442Z,994.10
2019-03-28T10:30:58.362Z,994.10
2019-03-28T10:31:58.282Z,994.10
2019-03-28T10:32:58.373Z,994.11
2019-03-28T10:33:58.132Z,994.09
2019-03-28T10:34:58.052Z,994.08
2019-03-28T10:35:57.975Z,994.09
2019-03-28T10:36:57.898Z,994.11
2019-03-28T10:37:57.817Z,994.12
2019-03-28T10:38:57.753Z,994.14
2019-03-28T10:39:57.670Z,994.10
2019-03-28T10:40:57.593Z,994.05
2019-03-28T10:41:57.517Z,994.04
2019-03-28T10:42:57.438Z,994.07
2019-03-28T10:43:57.375Z,994.05
2019-03-28T10:44:57.282Z,994.03
2019-03-28T10:45:57.204Z,994.05
2019-03-28T10:46:57.126Z,994.05
2019-03-28T10:47:57.049Z,994.04
2019-03-28T10:48:57.029Z,994.10
2019-03-28T10:49:56.893Z,994.05
2019-03-28T10:50:56.821Z,994.07
2019-03-28T10:51:56.738Z,994.06
2019-03-28T10:52:56.660Z,994.07
2019-03-28T10:53:56.582Z,994.02
2019-03-28T10:54:56.504Z,994.06
2019-03-28T10:55:56.425Z,994.07
2019-03-28T10:56:57.996Z,994.05
2019-03-28T10:57:56.268Z,994.01
2019-03-28T10:58:56.198Z,994.06
2019-03-28T10:59:56.111Z,994.06
2019-03-28T11:00:56.506Z,994.05
2019-03-28T11:01:55.956Z,994.06
2019-03-28T11:02:55.918Z,994.04
2019-03-28T11:03:56.449Z,994.04
2019-03-28T11:04:55.719Z,994.04
2019-03-28T11:05:55.642Z,994.06
2019-03-28T11:06:55.563Z,994.01
2019-03-28T11:07:55.485Z,993.99
2019-03-28T11:08:55.412Z,994.02
2019-03-28T11:09:55.330Z,994.02
2019-03-28T11:10:55.252Z,994.01
2019-03-28T11:11:55.174Z,994.00
2019-03-28T11:12:55.098Z,994.05
2019-03-28T11:13:55.019Z,994.07
2019-03-28T11:14:54.943Z,994.02
2019-03-28T11:15:54.858Z,994.01
2019-03-28T11:16:55.959Z,994.05
2019-03-28T11:17:54.703Z,994.07
2019-03-28T11:18:54.623Z,994.05
2019-03-28T11:19:56.059Z,994.08
2019-03-28T11:20:54.469Z,994.08
2019-03-28T11:21:54.387Z,994.07
2019-03-28T11:22:54.313Z,994.03
2019-03-28T11:23:54.229Z,994.05
2019-03-28T11:24:54.165Z,994.03
2019-03-28T11:25:57.219Z,994.01
2019-03-28T11:26:53.995Z,994.06
2019-03-28T11:27:53.914Z,994.03
2019-03-28T11:28:53.836Z,994.03
2019-03-28T11:29:53.758Z,993.99
2019-03-28T11:30:53.679Z,994.00
2019-03-28T11:31:53.601Z,994.05
2019-03-28T11:32:53.522Z,994.08
2019-03-28T11:33:53.443Z,994.07
2019-03-28T11:34:53.365Z,994.06
2019-03-28T11:35:53.284Z,994.07
2019-03-28T11:36:53.205Z,994.06
2019-03-28T11:37:53.134Z,994.04
2019-03-28T11:38:53.046Z,994.03
2019-03-28T11:39:52.969Z,994.07
2019-03-28T11:40:52.891Z,994.08
2019-03-28T11:41:52.811Z,994.05
2019-03-28T11:42:53.281Z,994.04
2019-03-28T11:43:52.651Z,994.08
2019-03-28T11:44:52.586Z,994.03
2019-03-28T11:45:52.494Z,994.00
2019-03-28T11:46:52.420Z,994.03
2019-03-28T11:47:52.334Z,993.99
2019-03-28T11:48:52.256Z,993.98
2019-03-28T11:49:52.180Z,993.96
2019-03-28T11:50:52.098Z,993.98
2019-03-28T11:51:52.016Z,993.95
2019-03-28T11:52:51.939Z,993.97
2019-03-28T11:53:51.860Z,993.98
2019-03-28T11:54:51.780Z,993.95
2019-03-28T11:55:51.702Z,993.99
2019-03-28T11:56:51.622Z,994.00
2019-03-28T11:57:51.546Z,993.99
2019-03-28T11:58:51.462Z,993.97
2019-03-28T11:59:51.382Z,993.99
2019-03-28T12:00:51.308Z,993.99
2019-03-28T12:01:59.723Z,993.95
2019-03-28T12:02:51.149Z,993.95
2019-03-28T12:03:51.071Z,993.98
2019-03-28T12:04:50.989Z,993.98
2019-03-28T12:05:53.116Z,993.98
2019-03-28T12:06:50.988Z,993.93
2019-03-28T12:07:50.752Z,993.96
2019-03-28T12:08:50.674Z,993.98
2019-03-28T12:09:50.591Z,993.94
2019-03-28T12:10:50.512Z,993.94
2019-03-28T12:11:52.912Z,993.95
2019-03-28T12:12:50.363Z,993.92
2019-03-28T12:13:50.276Z,993.93
2019-03-28T12:14:50.194Z,993.95
2019-03-28T12:15:50.890Z,993.90
2019-03-28T12:16:50.035Z,993.91
2019-03-28T12:17:49.961Z,993.92
2019-03-28T12:18:49.881Z,993.84
2019-03-28T12:19:49.800Z,993.82
2019-03-28T12:20:49.719Z,993.82
2019-03-28T12:21:49.643Z,993.83
2019-03-28T12:22:49.562Z,993.83
2019-03-28T12:23:49.481Z,993.81
2019-03-28T12:24:49.403Z,993.82
2019-03-28T12:25:49.324Z,993.84
2019-03-28T12:26:49.243Z,993.82
2019-03-28T12:27:49.166Z,993.80
2019-03-28T12:28:49.090Z,993.82